sensor_id;sensor_type;location;lat;lon;timestamp;temperature;humidity
22917;DHT22;11624;53.250;7.456;2023-12-29T00:00:45;15.45;59.38
22917;DHT22;11624;53.250;7.456;2023-12-29T00:03:14;15.38;59.35
22917;DHT22;11624;53.250;7.456;2023-12-29T00:05:42;15.32;59.04
22917;DHT22;11624;53.250;7.456;2023-12-29T00:08:18;15.43;59.32
22917;DHT22;11624;53.250;7.456;2023-12-29T00:10:47;15.39;58.95
22917;DHT22;11624;53.250;7.456;2023-12-29T00:13:16;15.52;58.93
22917;DHT22;11624;53.250;7.456;2023-12-29T00:15:51;15.56;58.30
22917;DHT22;11624;53.250;7.456;2023-12-29T00:18:27;15.66;58.26
22917;DHT22;11624;53.250;7.456;2023-12-29T00:20:55;15.63;57.96
22917;DHT22;11624;53.250;7.456;2023-12-29T00:23:33;15.72;57.91
22917;DHT22;11624;53.250;7.456;2023-12-29T00:26:03;15.66;57.92
22917;DHT22;11624;53.250;7.456;2023-12-29T00:28:31;15.67;57.73
22917;DHT22;11624;53.250;7.456;2023-12-29T00:30:59;15.78;57.48
22917;DHT22;11624;53.250;7.456;2023-12-29T00:33:30;15.68;57.29
22917;DHT22;11624;53.250;7.456;2023-12-29T00:35:59;15.67;57.42
22917;DHT22;11624;53.250;7.456;2023-12-29T00:38:29;15.67;57.21
22917;DHT22;11624;53.250;7.456;2023-12-29T00:40:57;15.73;57.06
22917;DHT22;11624;53.250;7.456;2023-12-29T00:43:46;15.70;57.10
22917;DHT22;11624;53.250;7.456;2023-12-29T00:46:15;15.85;56.75
22917;DHT22;11624;53.250;7.456;2023-12-29T00:48:56;15.85;56.59
22917;DHT22;11624;53.250;7.456;2023-12-29T00:51:24;15.83;56.56
22917;DHT22;11624;53.250;7.456;2023-12-29T00:53:53;15.71;56.97
22917;DHT22;11624;53.250;7.456;2023-12-29T00:56:21;15.74;56.99
22917;DHT22;11624;53.250;7.456;2023-12-29T00:58:50;15.70;57.11
22917;DHT22;11624;53.250;7.456;2023-12-29T01:01:19;15.78;57.14
22917;DHT22;11624;53.250;7.456;2023-12-29T01:03:47;15.76;57.05
22917;DHT22;11624;53.250;7.456;2023-12-29T01:06:16;15.82;57.02
22917;DHT22;11624;53.250;7.456;2023-12-29T01:08:44;15.82;56.93
22917;DHT22;11624;53.250;7.456;2023-12-29T01:11:12;15.80;56.71
22917;DHT22;11624;53.250;7.456;2023-12-29T01:13:41;15.82;56.53
22917;DHT22;11624;53.250;7.456;2023-12-29T01:16:11;15.89;55.55
22917;DHT22;11624;53.250;7.456;2023-12-29T01:18:39;15.93;55.74
22917;DHT22;11624;53.250;7.456;2023-12-29T01:21:14;16.02;55.23
22917;DHT22;11624;53.250;7.456;2023-12-29T01:23:50;16.07;55.42
22917;DHT22;11624;53.250;7.456;2023-12-29T01:26:18;16.13;55.27
22917;DHT22;11624;53.250;7.456;2023-12-29T01:28:46;16.10;55.40
22917;DHT22;11624;53.250;7.456;2023-12-29T01:31:16;16.11;55.27
22917;DHT22;11624;53.250;7.456;2023-12-29T01:33:45;16.10;55.46
22917;DHT22;11624;53.250;7.456;2023-12-29T01:36:17;15.83;56.45
22917;DHT22;11624;53.250;7.456;2023-12-29T01:38:51;15.80;56.90
22917;DHT22;11624;53.250;7.456;2023-12-29T01:41:20;15.66;57.44
22917;DHT22;11624;53.250;7.456;2023-12-29T01:44:17;15.63;57.32
22917;DHT22;11624;53.250;7.456;2023-12-29T01:46:48;15.58;57.45
22917;DHT22;11624;53.250;7.456;2023-12-29T01:49:22;15.55;57.24
22917;DHT22;11624;53.250;7.456;2023-12-29T01:51:53;15.58;57.51
22917;DHT22;11624;53.250;7.456;2023-12-29T01:54:27;15.48;57.58
22917;DHT22;11624;53.250;7.456;2023-12-29T01:56:59;15.54;57.40
22917;DHT22;11624;53.250;7.456;2023-12-29T01:59:29;15.54;57.61
22917;DHT22;11624;53.250;7.456;2023-12-29T02:01:59;15.61;57.32
22917;DHT22;11624;53.250;7.456;2023-12-29T02:04:28;15.56;57.44
22917;DHT22;11624;53.250;7.456;2023-12-29T02:06:57;15.55;57.65
22917;DHT22;11624;53.250;7.456;2023-12-29T02:09:25;15.56;57.55
22917;DHT22;11624;53.250;7.456;2023-12-29T02:11:54;15.54;57.75
22917;DHT22;11624;53.250;7.456;2023-12-29T02:14:23;15.66;57.43
22917;DHT22;11624;53.250;7.456;2023-12-29T02:17:04;15.60;57.07
22917;DHT22;11624;53.250;7.456;2023-12-29T02:19:38;15.30;56.75
22917;DHT22;11624;53.250;7.456;2023-12-29T02:22:08;15.14;55.90
22917;DHT22;11624;53.250;7.456;2023-12-29T02:24:38;15.00;55.42
22917;DHT22;11624;53.250;7.456;2023-12-29T02:27:12;14.79;55.05
22917;DHT22;11624;53.250;7.456;2023-12-29T02:29:45;14.51;54.77
22917;DHT22;11624;53.250;7.456;2023-12-29T02:32:18;14.03;55.87
22917;DHT22;11624;53.250;7.456;2023-12-29T02:34:47;13.85;56.52
22917;DHT22;11624;53.250;7.456;2023-12-29T02:37:17;13.73;56.93
22917;DHT22;11624;53.250;7.456;2023-12-29T02:39:46;13.54;57.24
22917;DHT22;11624;53.250;7.456;2023-12-29T02:42:15;13.43;56.72
22917;DHT22;11624;53.250;7.456;2023-12-29T02:44:44;13.36;56.91
22917;DHT22;11624;53.250;7.456;2023-12-29T02:47:12;13.12;57.60
22917;DHT22;11624;53.250;7.456;2023-12-29T02:49:40;13.14;57.92
22917;DHT22;11624;53.250;7.456;2023-12-29T02:52:09;13.20;57.54
22917;DHT22;11624;53.250;7.456;2023-12-29T02:54:37;13.17;57.74
22917;DHT22;11624;53.250;7.456;2023-12-29T02:57:05;13.18;57.76
22917;DHT22;11624;53.250;7.456;2023-12-29T02:59:35;13.06;57.84
22917;DHT22;11624;53.250;7.456;2023-12-29T03:02:07;13.00;57.98
22917;DHT22;11624;53.250;7.456;2023-12-29T03:04:35;12.79;59.04
22917;DHT22;11624;53.250;7.456;2023-12-29T03:07:03;12.77;59.53
22917;DHT22;11624;53.250;7.456;2023-12-29T03:09:32;12.85;59.89
22917;DHT22;11624;53.250;7.456;2023-12-29T03:12:00;12.90;60.07
22917;DHT22;11624;53.250;7.456;2023-12-29T03:14:28;12.91;60.29
22917;DHT22;11624;53.250;7.456;2023-12-29T03:17:00;12.94;60.12
22917;DHT22;11624;53.250;7.456;2023-12-29T03:19:34;13.08;59.99
22917;DHT22;11624;53.250;7.456;2023-12-29T03:22:02;13.25;59.64
22917;DHT22;11624;53.250;7.456;2023-12-29T03:24:31;13.29;59.67
22917;DHT22;11624;53.250;7.456;2023-12-29T03:26:59;13.34;59.36
22917;DHT22;11624;53.250;7.456;2023-12-29T03:29:28;13.45;59.25
22917;DHT22;11624;53.250;7.456;2023-12-29T03:31:56;13.55;58.89
22917;DHT22;11624;53.250;7.456;2023-12-29T03:34:26;13.63;58.69
22917;DHT22;11624;53.250;7.456;2023-12-29T03:37:00;13.69;58.58
22917;DHT22;11624;53.250;7.456;2023-12-29T03:39:28;13.74;58.77
22917;DHT22;11624;53.250;7.456;2023-12-29T03:41:56;13.81;58.95
22917;DHT22;11624;53.250;7.456;2023-12-29T03:44:25;13.91;58.99
22917;DHT22;11624;53.250;7.456;2023-12-29T03:46:53;13.96;58.96
22917;DHT22;11624;53.250;7.456;2023-12-29T03:49:22;14.04;59.23
22917;DHT22;11624;53.250;7.456;2023-12-29T03:51:54;14.10;59.22
22917;DHT22;11624;53.250;7.456;2023-12-29T03:54:23;14.06;59.55
22917;DHT22;11624;53.250;7.456;2023-12-29T03:56:51;14.11;59.53
22917;DHT22;11624;53.250;7.456;2023-12-29T03:59:20;14.20;59.83
22917;DHT22;11624;53.250;7.456;2023-12-29T04:01:48;14.24;60.02
22917;DHT22;11624;53.250;7.456;2023-12-29T04:04:16;14.41;59.74
22917;DHT22;11624;53.250;7.456;2023-12-29T04:06:45;14.52;59.68
22917;DHT22;11624;53.250;7.456;2023-12-29T04:09:14;14.53;59.73
22917;DHT22;11624;53.250;7.456;2023-12-29T04:11:43;14.68;59.63
22917;DHT22;11624;53.250;7.456;2023-12-29T04:14:12;14.74;59.61
22917;DHT22;11624;53.250;7.456;2023-12-29T04:17:06;14.81;59.11
22917;DHT22;11624;53.250;7.456;2023-12-29T04:19:46;14.88;59.36
22917;DHT22;11624;53.250;7.456;2023-12-29T04:22:16;14.96;59.19
22917;DHT22;11624;53.250;7.456;2023-12-29T04:24:46;14.93;58.83
22917;DHT22;11624;53.250;7.456;2023-12-29T04:27:15;15.02;58.87
22917;DHT22;11624;53.250;7.456;2023-12-29T04:29:43;15.12;58.61
22917;DHT22;11624;53.250;7.456;2023-12-29T04:32:11;15.09;58.24
22917;DHT22;11624;53.250;7.456;2023-12-29T04:34:40;15.10;58.16
22917;DHT22;11624;53.250;7.456;2023-12-29T04:37:08;15.22;57.89
22917;DHT22;11624;53.250;7.456;2023-12-29T04:39:36;15.26;57.49
22917;DHT22;11624;53.250;7.456;2023-12-29T04:42:06;15.18;57.35
22917;DHT22;11624;53.250;7.456;2023-12-29T04:44:34;15.23;56.95
22917;DHT22;11624;53.250;7.456;2023-12-29T04:47:03;15.19;57.00
22917;DHT22;11624;53.250;7.456;2023-12-29T04:49:31;15.21;56.94
22917;DHT22;11624;53.250;7.456;2023-12-29T04:51:59;15.24;56.76
22917;DHT22;11624;53.250;7.456;2023-12-29T04:54:28;15.19;56.71
22917;DHT22;11624;53.250;7.456;2023-12-29T04:56:56;15.26;56.47
22917;DHT22;11624;53.250;7.456;2023-12-29T04:59:26;15.21;56.26
22917;DHT22;11624;53.250;7.456;2023-12-29T05:01:54;15.19;56.24
22917;DHT22;11624;53.250;7.456;2023-12-29T05:04:23;15.14;56.10
22917;DHT22;11624;53.250;7.456;2023-12-29T05:06:51;15.16;55.97
22917;DHT22;11624;53.250;7.456;2023-12-29T05:09:19;15.15;55.55
22917;DHT22;11624;53.250;7.456;2023-12-29T05:11:47;15.19;55.33
22917;DHT22;11624;53.250;7.456;2023-12-29T05:14:16;15.18;55.14
22917;DHT22;11624;53.250;7.456;2023-12-29T05:16:44;15.18;54.94
22917;DHT22;11624;53.250;7.456;2023-12-29T05:19:13;15.18;54.94
22917;DHT22;11624;53.250;7.456;2023-12-29T05:21:41;15.17;55.07
22917;DHT22;11624;53.250;7.456;2023-12-29T05:24:09;15.16;55.12
22917;DHT22;11624;53.250;7.456;2023-12-29T05:26:38;15.08;55.67
22917;DHT22;11624;53.250;7.456;2023-12-29T05:29:06;15.04;56.15
22917;DHT22;11624;53.250;7.456;2023-12-29T05:31:34;15.13;56.32
22917;DHT22;11624;53.250;7.456;2023-12-29T05:34:04;15.15;56.39
22917;DHT22;11624;53.250;7.456;2023-12-29T05:36:35;15.21;56.28
22917;DHT22;11624;53.250;7.456;2023-12-29T05:39:06;15.25;56.61
22917;DHT22;11624;53.250;7.456;2023-12-29T05:41:34;15.16;56.74
22917;DHT22;11624;53.250;7.456;2023-12-29T05:44:03;15.15;57.01
22917;DHT22;11624;53.250;7.456;2023-12-29T05:46:31;15.24;56.77
22917;DHT22;11624;53.250;7.456;2023-12-29T05:49:00;15.17;56.78
22917;DHT22;11624;53.250;7.456;2023-12-29T05:51:29;15.23;56.72
22917;DHT22;11624;53.250;7.456;2023-12-29T05:53:58;15.26;56.45
22917;DHT22;11624;53.250;7.456;2023-12-29T05:56:26;15.23;56.46
22917;DHT22;11624;53.250;7.456;2023-12-29T05:58:54;15.27;56.20
22917;DHT22;11624;53.250;7.456;2023-12-29T06:01:23;15.33;55.78
22917;DHT22;11624;53.250;7.456;2023-12-29T06:03:51;15.30;55.22
22917;DHT22;11624;53.250;7.456;2023-12-29T06:06:20;15.28;55.14
22917;DHT22;11624;53.250;7.456;2023-12-29T06:08:49;15.27;54.84
22917;DHT22;11624;53.250;7.456;2023-12-29T06:11:18;15.25;54.67
22917;DHT22;11624;53.250;7.456;2023-12-29T06:13:46;15.25;54.30
22917;DHT22;11624;53.250;7.456;2023-12-29T06:16:18;15.31;53.40
22917;DHT22;11624;53.250;7.456;2023-12-29T06:18:47;15.33;53.41
22917;DHT22;11624;53.250;7.456;2023-12-29T06:21:16;15.40;52.99
22917;DHT22;11624;53.250;7.456;2023-12-29T06:23:44;15.45;52.69
22917;DHT22;11624;53.250;7.456;2023-12-29T06:26:18;15.45;52.20
22917;DHT22;11624;53.250;7.456;2023-12-29T06:28:47;15.40;52.16
22917;DHT22;11624;53.250;7.456;2023-12-29T06:31:17;15.39;52.20
22917;DHT22;11624;53.250;7.456;2023-12-29T06:33:45;15.39;52.28
22917;DHT22;11624;53.250;7.456;2023-12-29T06:36:16;15.46;51.97
22917;DHT22;11624;53.250;7.456;2023-12-29T06:38:48;15.47;51.91
22917;DHT22;11624;53.250;7.456;2023-12-29T06:41:25;15.42;51.66
22917;DHT22;11624;53.250;7.456;2023-12-29T06:43:54;15.36;51.83
22917;DHT22;11624;53.250;7.456;2023-12-29T06:46:22;15.46;51.71
22917;DHT22;11624;53.250;7.456;2023-12-29T06:48:50;15.48;51.49
22917;DHT22;11624;53.250;7.456;2023-12-29T06:51:19;15.51;51.50
22917;DHT22;11624;53.250;7.456;2023-12-29T06:53:49;15.39;51.41
22917;DHT22;11624;53.250;7.456;2023-12-29T06:56:17;15.47;51.59
22917;DHT22;11624;53.250;7.456;2023-12-29T06:58:55;15.48;51.54
22917;DHT22;11624;53.250;7.456;2023-12-29T07:01:24;15.37;52.35
22917;DHT22;11624;53.250;7.456;2023-12-29T07:03:52;15.26;52.82
22917;DHT22;11624;53.250;7.456;2023-12-29T07:06:20;15.27;53.61
22917;DHT22;11624;53.250;7.456;2023-12-29T07:08:49;15.25;54.00
22917;DHT22;11624;53.250;7.456;2023-12-29T07:11:18;15.14;54.71
22917;DHT22;11624;53.250;7.456;2023-12-29T07:13:46;15.00;55.46
22917;DHT22;11624;53.250;7.456;2023-12-29T07:16:15;14.89;55.99
22917;DHT22;11624;53.250;7.456;2023-12-29T07:18:47;14.89;56.17
22917;DHT22;11624;53.250;7.456;2023-12-29T07:21:17;14.88;56.55
22917;DHT22;11624;53.250;7.456;2023-12-29T07:23:46;14.82;56.93
22917;DHT22;11624;53.250;7.456;2023-12-29T07:26:14;14.86;57.12
22917;DHT22;11624;53.250;7.456;2023-12-29T07:28:42;14.74;57.76
22917;DHT22;11624;53.250;7.456;2023-12-29T07:31:10;14.78;57.04
22917;DHT22;11624;53.250;7.456;2023-12-29T07:33:40;14.88;57.13
22917;DHT22;11624;53.250;7.456;2023-12-29T07:36:09;14.87;57.64
22917;DHT22;11624;53.250;7.456;2023-12-29T07:38:48;14.97;57.80
22917;DHT22;11624;53.250;7.456;2023-12-29T07:41:28;14.97;57.77
22917;DHT22;11624;53.250;7.456;2023-12-29T07:43:57;14.97;57.61
22917;DHT22;11624;53.250;7.456;2023-12-29T07:46:26;15.04;57.41
22917;DHT22;11624;53.250;7.456;2023-12-29T07:48:56;15.03;57.00
22917;DHT22;11624;53.250;7.456;2023-12-29T07:51:24;15.09;56.70
22917;DHT22;11624;53.250;7.456;2023-12-29T07:53:53;14.99;56.55
22917;DHT22;11624;53.250;7.456;2023-12-29T07:56:21;14.95;55.96
22917;DHT22;11624;53.250;7.456;2023-12-29T07:58:49;14.97;55.64
22917;DHT22;11624;53.250;7.456;2023-12-29T08:01:17;15.01;55.47
22917;DHT22;11624;53.250;7.456;2023-12-29T08:03:45;14.97;55.82
22917;DHT22;11624;53.250;7.456;2023-12-29T08:06:15;14.99;55.62
22917;DHT22;11624;53.250;7.456;2023-12-29T08:08:44;15.03;56.21
22917;DHT22;11624;53.250;7.456;2023-12-29T08:11:17;15.03;56.25
22917;DHT22;11624;53.250;7.456;2023-12-29T08:13:53;15.03;57.10
22917;DHT22;11624;53.250;7.456;2023-12-29T08:16:43;14.99;57.43
22917;DHT22;11624;53.250;7.456;2023-12-29T08:19:42;14.98;57.41
22917;DHT22;11624;53.250;7.456;2023-12-29T08:22:40;14.98;57.29
22917;DHT22;11624;53.250;7.456;2023-12-29T08:25:15;15.08;57.44
22917;DHT22;11624;53.250;7.456;2023-12-29T08:27:43;15.04;57.23
22917;DHT22;11624;53.250;7.456;2023-12-29T08:30:20;15.02;57.03
22917;DHT22;11624;53.250;7.456;2023-12-29T08:32:51;15.10;57.09
22917;DHT22;11624;53.250;7.456;2023-12-29T08:35:21;15.09;57.06
22917;DHT22;11624;53.250;7.456;2023-12-29T08:37:50;15.08;56.78
22917;DHT22;11624;53.250;7.456;2023-12-29T08:40:19;15.10;56.76
22917;DHT22;11624;53.250;7.456;2023-12-29T08:42:47;15.16;56.68
22917;DHT22;11624;53.250;7.456;2023-12-29T08:45:15;15.17;56.73
22917;DHT22;11624;53.250;7.456;2023-12-29T08:47:44;15.21;56.52
22917;DHT22;11624;53.250;7.456;2023-12-29T08:50:12;15.09;56.56
22917;DHT22;11624;53.250;7.456;2023-12-29T08:52:41;15.11;56.77
22917;DHT22;11624;53.250;7.456;2023-12-29T08:55:11;15.17;56.36
22917;DHT22;11624;53.250;7.456;2023-12-29T08:57:39;15.17;56.29
22917;DHT22;11624;53.250;7.456;2023-12-29T09:00:08;15.15;56.23
22917;DHT22;11624;53.250;7.456;2023-12-29T09:02:37;15.19;55.91
22917;DHT22;11624;53.250;7.456;2023-12-29T09:05:12;15.17;55.69
22917;DHT22;11624;53.250;7.456;2023-12-29T09:08:24;15.18;55.59
22917;DHT22;11624;53.250;7.456;2023-12-29T09:10:55;15.28;55.55
22917;DHT22;11624;53.250;7.456;2023-12-29T09:13:23;15.28;55.52
22917;DHT22;11624;53.250;7.456;2023-12-29T09:15:54;15.32;55.45
22917;DHT22;11624;53.250;7.456;2023-12-29T09:18:23;15.36;55.42
22917;DHT22;11624;53.250;7.456;2023-12-29T09:21:01;15.41;55.20
22917;DHT22;11624;53.250;7.456;2023-12-29T09:24:12;15.42;54.75
22917;DHT22;11624;53.250;7.456;2023-12-29T09:27:05;15.43;54.61
22917;DHT22;11624;53.250;7.456;2023-12-29T09:30:12;15.40;55.05
22917;DHT22;11624;53.250;7.456;2023-12-29T09:32:47;15.42;54.99
22917;DHT22;11624;53.250;7.456;2023-12-29T09:35:21;15.49;54.90
22917;DHT22;11624;53.250;7.456;2023-12-29T09:37:57;15.53;54.91
22917;DHT22;11624;53.250;7.456;2023-12-29T09:40:32;15.52;54.97
22917;DHT22;11624;53.250;7.456;2023-12-29T09:43:07;15.57;54.44
22917;DHT22;11624;53.250;7.456;2023-12-29T09:45:38;15.59;54.50
22917;DHT22;11624;53.250;7.456;2023-12-29T09:48:11;15.52;54.06
22917;DHT22;11624;53.250;7.456;2023-12-29T09:50:42;15.58;54.26
22917;DHT22;11624;53.250;7.456;2023-12-29T09:53:11;15.60;54.23
22917;DHT22;11624;53.250;7.456;2023-12-29T09:55:40;15.71;53.91
22917;DHT22;11624;53.250;7.456;2023-12-29T09:58:11;15.65;53.88
22917;DHT22;11624;53.250;7.456;2023-12-29T10:00:40;15.73;53.96
22917;DHT22;11624;53.250;7.456;2023-12-29T10:03:10;15.80;53.92
22917;DHT22;11624;53.250;7.456;2023-12-29T10:05:38;15.85;54.01
22917;DHT22;11624;53.250;7.456;2023-12-29T10:08:07;15.91;53.87
22917;DHT22;11624;53.250;7.456;2023-12-29T10:10:38;15.90;53.82
22917;DHT22;11624;53.250;7.456;2023-12-29T10:13:16;15.90;53.24
22917;DHT22;11624;53.250;7.456;2023-12-29T10:16:06;15.86;52.76
22917;DHT22;11624;53.250;7.456;2023-12-29T10:19:06;15.91;52.43
22917;DHT22;11624;53.250;7.456;2023-12-29T10:21:50;15.93;52.64
22917;DHT22;11624;53.250;7.456;2023-12-29T10:24:21;15.98;52.67
22917;DHT22;11624;53.250;7.456;2023-12-29T10:26:50;16.03;52.68
22917;DHT22;11624;53.250;7.456;2023-12-29T10:29:21;16.08;52.66
22917;DHT22;11624;53.250;7.456;2023-12-29T10:31:50;16.06;52.74
22917;DHT22;11624;53.250;7.456;2023-12-29T10:34:21;16.07;52.55
22917;DHT22;11624;53.250;7.456;2023-12-29T10:37:27;15.98;52.18
22917;DHT22;11624;53.250;7.456;2023-12-29T10:39:56;15.87;52.78
22917;DHT22;11624;53.250;7.456;2023-12-29T10:42:54;15.90;52.61
22917;DHT22;11624;53.250;7.456;2023-12-29T10:45:49;15.89;52.66
22917;DHT22;11624;53.250;7.456;2023-12-29T10:48:43;15.88;53.13
22917;DHT22;11624;53.250;7.456;2023-12-29T10:51:30;15.82;53.55
22917;DHT22;11624;53.250;7.456;2023-12-29T10:54:12;15.78;53.53
22917;DHT22;11624;53.250;7.456;2023-12-29T10:57:49;15.84;53.95
22917;DHT22;11624;53.250;7.456;2023-12-29T11:08:00;16.10;52.91
22917;DHT22;11624;53.250;7.456;2023-12-29T11:10:37;16.12;52.13
22917;DHT22;11624;53.250;7.456;2023-12-29T11:13:11;16.16;51.40
22917;DHT22;11624;53.250;7.456;2023-12-29T11:15:44;16.17;51.57
22917;DHT22;11624;53.250;7.456;2023-12-29T11:18:14;16.16;51.68
22917;DHT22;11624;53.250;7.456;2023-12-29T11:20:43;16.13;52.01
22917;DHT22;11624;53.250;7.456;2023-12-29T11:23:13;16.16;51.91
22917;DHT22;11624;53.250;7.456;2023-12-29T11:25:44;16.18;51.28
22917;DHT22;11624;53.250;7.456;2023-12-29T11:28:13;16.19;51.11
22917;DHT22;11624;53.250;7.456;2023-12-29T11:30:42;16.17;51.02
22917;DHT22;11624;53.250;7.456;2023-12-29T11:33:15;16.14;50.61
22917;DHT22;11624;53.250;7.456;2023-12-29T11:36:12;15.93;50.74
22917;DHT22;11624;53.250;7.456;2023-12-29T11:39:24;15.82;50.69
22917;DHT22;11624;53.250;7.456;2023-12-29T11:42:49;15.70;51.02
22917;DHT22;11624;53.250;7.456;2023-12-29T11:48:57;15.98;51.14
22917;DHT22;11624;53.250;7.456;2023-12-29T11:55:50;16.21;50.37
22917;DHT22;11624;53.250;7.456;2023-12-29T11:59:26;16.31;48.83
22917;DHT22;11624;53.250;7.456;2023-12-29T12:01:59;16.46;49.37
22917;DHT22;11624;53.250;7.456;2023-12-29T12:05:45;17.09;48.84
22917;DHT22;11624;53.250;7.456;2023-12-29T12:08:35;17.70;46.72
22917;DHT22;11624;53.250;7.456;2023-12-29T12:17:33;18.23;43.48
22917;DHT22;11624;53.250;7.456;2023-12-29T12:20:13;17.79;43.04
22917;DHT22;11624;53.250;7.456;2023-12-29T12:27:27;17.19;41.89
22917;DHT22;11624;53.250;7.456;2023-12-29T12:30:20;17.01;41.55
22917;DHT22;11624;53.250;7.456;2023-12-29T12:33:19;17.09;41.01
22917;DHT22;11624;53.250;7.456;2023-12-29T12:35:58;17.26;41.28
22917;DHT22;11624;53.250;7.456;2023-12-29T12:38:28;17.44;40.55
22917;DHT22;11624;53.250;7.456;2023-12-29T12:42:09;17.33;40.82
22917;DHT22;11624;53.250;7.456;2023-12-29T12:45:13;17.01;41.38
22917;DHT22;11624;53.250;7.456;2023-12-29T12:49:02;17.06;41.32
22917;DHT22;11624;53.250;7.456;2023-12-29T12:51:51;17.41;41.67
22917;DHT22;11624;53.250;7.456;2023-12-29T12:54:23;17.45;41.41
22917;DHT22;11624;53.250;7.456;2023-12-29T12:56:55;17.41;41.36
22917;DHT22;11624;53.250;7.456;2023-12-29T12:59:27;17.23;41.84
22917;DHT22;11624;53.250;7.456;2023-12-29T13:02:51;17.03;42.39
22917;DHT22;11624;53.250;7.456;2023-12-29T13:07:00;16.86;42.90
22917;DHT22;11624;53.250;7.456;2023-12-29T13:09:36;16.88;43.13
22917;DHT22;11624;53.250;7.456;2023-12-29T13:12:30;16.98;43.35
22917;DHT22;11624;53.250;7.456;2023-12-29T13:15:34;16.98;43.22
22917;DHT22;11624;53.250;7.456;2023-12-29T13:18:33;16.78;43.52
22917;DHT22;11624;53.250;7.456;2023-12-29T13:21:04;16.57;44.06
22917;DHT22;11624;53.250;7.456;2023-12-29T13:24:06;16.36;44.16
22917;DHT22;11624;53.250;7.456;2023-12-29T13:26:42;16.36;43.96
22917;DHT22;11624;53.250;7.456;2023-12-29T13:29:41;16.25;44.46
22917;DHT22;11624;53.250;7.456;2023-12-29T13:32:19;16.11;44.87
22917;DHT22;11624;53.250;7.456;2023-12-29T13:34:59;16.00;44.79
22917;DHT22;11624;53.250;7.456;2023-12-29T13:37:37;15.96;44.77
22917;DHT22;11624;53.250;7.456;2023-12-29T13:40:24;15.85;45.14
22917;DHT22;11624;53.250;7.456;2023-12-29T13:42:57;15.80;45.41
22917;DHT22;11624;53.250;7.456;2023-12-29T13:45:46;15.60;45.86
22917;DHT22;11624;53.250;7.456;2023-12-29T13:48:28;15.56;46.26
22917;DHT22;11624;53.250;7.456;2023-12-29T13:51:25;15.53;46.67
22917;DHT22;11624;53.250;7.456;2023-12-29T13:54:09;15.57;46.51
22917;DHT22;11624;53.250;7.456;2023-12-29T13:56:52;15.56;46.34
22917;DHT22;11624;53.250;7.456;2023-12-29T13:59:30;15.41;46.55
22917;DHT22;11624;53.250;7.456;2023-12-29T14:03:26;15.32;46.93
22917;DHT22;11624;53.250;7.456;2023-12-29T14:07:01;15.26;47.05
22917;DHT22;11624;53.250;7.456;2023-12-29T14:09:32;15.17;47.09
22917;DHT22;11624;53.250;7.456;2023-12-29T14:12:08;15.17;47.12
22917;DHT22;11624;53.250;7.456;2023-12-29T14:14:45;15.09;46.74
22917;DHT22;11624;53.250;7.456;2023-12-29T14:17:21;15.00;47.09
22917;DHT22;11624;53.250;7.456;2023-12-29T14:20:07;14.98;47.41
22917;DHT22;11624;53.250;7.456;2023-12-29T14:22:38;15.02;47.45
22917;DHT22;11624;53.250;7.456;2023-12-29T14:25:21;14.95;47.50
22917;DHT22;11624;53.250;7.456;2023-12-29T14:28:39;14.88;47.05
22917;DHT22;11624;53.250;7.456;2023-12-29T14:31:07;14.97;47.24
22917;DHT22;11624;53.250;7.456;2023-12-29T14:33:35;14.99;47.16
22917;DHT22;11624;53.250;7.456;2023-12-29T14:36:04;15.01;47.09
22917;DHT22;11624;53.250;7.456;2023-12-29T14:38:38;14.94;46.81
22917;DHT22;11624;53.250;7.456;2023-12-29T14:41:06;14.92;47.21
22917;DHT22;11624;53.250;7.456;2023-12-29T14:43:36;14.95;47.18
22917;DHT22;11624;53.250;7.456;2023-12-29T14:46:05;14.98;47.17
22917;DHT22;11624;53.250;7.456;2023-12-29T14:48:33;14.87;47.31
22917;DHT22;11624;53.250;7.456;2023-12-29T14:51:01;14.85;47.33
22917;DHT22;11624;53.250;7.456;2023-12-29T14:53:30;14.81;47.32
22917;DHT22;11624;53.250;7.456;2023-12-29T14:55:58;14.83;47.20
22917;DHT22;11624;53.250;7.456;2023-12-29T14:58:27;14.78;47.16
22917;DHT22;11624;53.250;7.456;2023-12-29T15:00:56;14.77;47.18
22917;DHT22;11624;53.250;7.456;2023-12-29T15:03:35;14.70;47.03
22917;DHT22;11624;53.250;7.456;2023-12-29T15:06:18;14.67;46.87
22917;DHT22;11624;53.250;7.456;2023-12-29T15:08:47;14.63;46.91
22917;DHT22;11624;53.250;7.456;2023-12-29T15:11:15;14.51;46.81
22917;DHT22;11624;53.250;7.456;2023-12-29T15:13:45;14.50;46.76
22917;DHT22;11624;53.250;7.456;2023-12-29T15:16:15;14.52;46.63
22917;DHT22;11624;53.250;7.456;2023-12-29T15:18:44;14.50;46.55
22917;DHT22;11624;53.250;7.456;2023-12-29T15:21:12;14.54;46.38
22917;DHT22;11624;53.250;7.456;2023-12-29T15:23:40;14.55;46.38
22917;DHT22;11624;53.250;7.456;2023-12-29T15:26:09;14.58;46.34
22917;DHT22;11624;53.250;7.456;2023-12-29T15:28:40;14.54;45.96
22917;DHT22;11624;53.250;7.456;2023-12-29T15:31:11;14.52;46.02
22917;DHT22;11624;53.250;7.456;2023-12-29T15:33:46;14.59;46.01
22917;DHT22;11624;53.250;7.456;2023-12-29T15:36:26;14.58;45.92
22917;DHT22;11624;53.250;7.456;2023-12-29T15:38:55;14.59;45.92
22917;DHT22;11624;53.250;7.456;2023-12-29T15:41:26;14.62;46.12
22917;DHT22;11624;53.250;7.456;2023-12-29T15:43:54;14.62;46.18
22917;DHT22;11624;53.250;7.456;2023-12-29T15:46:23;14.60;46.19
22917;DHT22;11624;53.250;7.456;2023-12-29T15:48:52;14.62;46.32
22917;DHT22;11624;53.250;7.456;2023-12-29T15:51:24;14.58;46.46
22917;DHT22;11624;53.250;7.456;2023-12-29T15:53:52;14.54;46.67
22917;DHT22;11624;53.250;7.456;2023-12-29T15:56:22;14.47;47.06
22917;DHT22;11624;53.250;7.456;2023-12-29T15:58:50;14.44;47.09
22917;DHT22;11624;53.250;7.456;2023-12-29T16:01:23;14.45;46.94
22917;DHT22;11624;53.250;7.456;2023-12-29T16:03:55;14.40;47.33
22917;DHT22;11624;53.250;7.456;2023-12-29T16:06:26;14.40;47.66
22917;DHT22;11624;53.250;7.456;2023-12-29T16:08:55;14.41;47.68
22917;DHT22;11624;53.250;7.456;2023-12-29T16:11:25;14.41;47.83
22917;DHT22;11624;53.250;7.456;2023-12-29T16:13:53;14.40;47.98
22917;DHT22;11624;53.250;7.456;2023-12-29T16:16:23;14.41;48.06
22917;DHT22;11624;53.250;7.456;2023-12-29T16:18:55;14.49;47.90
22917;DHT22;11624;53.250;7.456;2023-12-29T16:21:24;14.52;47.99
22917;DHT22;11624;53.250;7.456;2023-12-29T16:23:55;14.51;48.05
22917;DHT22;11624;53.250;7.456;2023-12-29T16:26:23;14.44;48.23
22917;DHT22;11624;53.250;7.456;2023-12-29T16:29:04;14.50;48.28
22917;DHT22;11624;53.250;7.456;2023-12-29T16:31:32;14.57;48.17
22917;DHT22;11624;53.250;7.456;2023-12-29T16:34:02;14.60;48.18
22917;DHT22;11624;53.250;7.456;2023-12-29T16:36:31;14.63;48.39
22917;DHT22;11624;53.250;7.456;2023-12-29T16:38:59;14.64;48.47
22917;DHT22;11624;53.250;7.456;2023-12-29T16:41:29;14.71;48.47
22917;DHT22;11624;53.250;7.456;2023-12-29T16:43:57;14.72;48.49